Time;durP1;ratioP1;P1;durP2;ratioP2;P2;SDS_P1;SDS_P2;PMS_P1;PMS_P2;Temp;Humidity;BMP_temperature;BMP_pressure;BME280_temperature;BME280_humidity;BME280_pressure;Samples;Min_cycle;Max_cycle;Signal;HPM_P1;HPM_P2
2021/09/04 00:01:37;;;;;;;13.88;9.13;;;12.60;99.90;;;;;;6123690;23;20002;-75
2021/09/04 00:04:03;;;;;;;17.35;9.40;;;12.50;99.90;;;;;;6124193;23;20022;-75
2021/09/04 00:06:28;;;;;;;14.30;8.93;;;12.50;99.90;;;;;;6122613;23;20014;-76
2021/09/04 00:08:54;;;;;;;14.07;9.90;;;12.40;99.90;;;;;;6124371;23;20013;-76
2021/09/04 00:11:20;;;;;;;17.65;10.43;;;12.40;99.90;;;;;;6124059;23;20517;-75
2021/09/04 00:13:46;;;;;;;15.57;9.93;;;12.30;99.90;;;;;;6097537;23;20014;-75
2021/09/04 00:16:12;;;;;;;12.90;9.07;;;12.30;99.90;;;;;;6123609;23;20497;-75
2021/09/04 00:18:37;;;;;;;17.55;9.93;;;12.20;99.90;;;;;;6123010;23;20009;-75
2021/09/04 00:21:03;;;;;;;14.15;9.45;;;12.20;99.90;;;;;;6124571;23;20014;-75
2021/09/04 00:23:29;;;;;;;14.90;9.68;;;12.10;99.90;;;;;;6125739;23;20006;-74
2021/09/04 00:25:55;;;;;;;14.20;10.00;;;12.10;99.90;;;;;;6126178;23;20008;-74
2021/09/04 00:28:20;;;;;;;13.48;9.40;;;12.00;99.90;;;;;;6126246;23;20106;-75
2021/09/04 00:30:46;;;;;;;15.10;10.13;;;12.00;99.90;;;;;;6125690;23;20044;-75
2021/09/04 00:33:12;;;;;;;12.65;8.48;;;12.00;99.90;;;;;;6126948;23;20045;-75
2021/09/04 00:35:38;;;;;;;14.52;8.27;;;11.90;99.90;;;;;;6125598;23;20345;-75
2021/09/04 00:38:04;;;;;;;12.57;8.63;;;11.90;99.90;;;;;;6125578;23;20009;-75
2021/09/04 00:40:29;;;;;;;12.70;7.88;;;11.80;99.90;;;;;;6125519;23;20458;-74
2021/09/04 00:42:56;;;;;;;17.88;7.50;;;11.70;99.90;;;;;;6123423;23;20009;-75
2021/09/04 00:45:21;;;;;;;14.05;7.78;;;11.70;99.90;;;;;;6125938;23;20449;-74
2021/09/04 00:47:58;;;;;;;14.32;7.38;;;11.70;99.90;;;;;;6125626;23;20009;-74
2021/09/04 00:50:26;;;;;;;8.73;6.70;;;11.70;99.90;;;;;;6125560;23;20002;-74
2021/09/04 00:52:52;;;;;;;10.93;7.63;;;11.70;99.90;;;;;;6125735;23;20018;-75
2021/09/04 00:55:18;;;;;;;12.20;6.80;;;11.60;99.90;;;;;;6099872;23;20017;-75
2021/09/04 00:57:45;;;;;;;10.13;6.93;;;11.60;99.90;;;;;;6126637;23;20002;-75
2021/09/04 01:00:11;;;;;;;12.85;7.32;;;11.60;99.90;;;;;;6126922;23;20052;-75
2021/09/04 01:02:37;;;;;;;8.35;6.65;;;11.60;99.90;;;;;;6099030;23;20406;-75
2021/09/04 01:05:03;;;;;;;12.77;6.97;;;11.60;99.90;;;;;;6125745;23;20001;-75
2021/09/04 01:07:29;;;;;;;9.27;5.85;;;11.50;99.90;;;;;;6125953;23;20409;-74
2021/09/04 01:09:54;;;;;;;10.98;6.85;;;11.40;99.90;;;;;;6126023;23;20002;-75
2021/09/04 01:12:20;;;;;;;8.82;5.85;;;11.40;99.90;;;;;;6126075;23;20017;-75
2021/09/04 01:14:46;;;;;;;10.30;6.60;;;11.40;99.90;;;;;;6125711;23;20002;-75
2021/09/04 01:17:11;;;;;;;14.73;6.90;;;11.40;99.90;;;;;;6125486;23;20010;-75
2021/09/04 01:19:38;;;;;;;10.40;6.35;;;11.30;99.90;;;;;;6126217;23;20480;-75
2021/09/04 01:22:03;;;;;;;13.40;6.57;;;11.30;99.90;;;;;;6125692;23;20002;-75
2021/09/04 01:24:29;;;;;;;11.35;6.55;;;11.20;99.90;;;;;;6126078;23;20013;-76
2021/09/04 01:26:55;;;;;;;9.25;6.05;;;11.20;99.90;;;;;;6125487;23;20001;-76
2021/09/04 01:29:21;;;;;;;9.63;5.82;;;11.20;99.90;;;;;;6126450;23;20002;-76
2021/09/04 01:31:46;;;;;;;8.95;6.32;;;11.20;99.90;;;;;;6125889;23;20017;-76
2021/09/04 01:34:12;;;;;;;14.63;6.43;;;11.10;99.90;;;;;;6125434;23;20456;-76
2021/09/04 01:36:39;;;;;;;11.85;6.90;;;11.10;99.90;;;;;;6125620;23;20001;-76
2021/09/04 01:39:06;;;;;;;10.43;5.93;;;11.00;99.90;;;;;;6124577;23;20438;-76
2021/09/04 01:41:32;;;;;;;7.50;5.60;;;11.00;99.90;;;;;;6125040;23;20065;-76
2021/09/04 01:43:59;;;;;;;11.43;6.53;;;11.00;99.90;;;;;;6125043;23;20437;-76
2021/09/04 01:46:25;;;;;;;11.35;7.28;;;10.90;99.90;;;;;;6125321;23;20414;-76
2021/09/04 01:48:51;;;;;;;10.68;7.25;;;10.90;99.90;;;;;;6125436;23;20084;-76
2021/09/04 01:51:17;;;;;;;12.25;7.85;;;10.80;99.90;;;;;;6125820;23;20006;-76
2021/09/04 01:53:43;;;;;;;11.20;7.13;;;10.80;99.90;;;;;;6125484;23;20010;-76
2021/09/04 01:56:10;;;;;;;10.48;7.40;;;10.80;99.90;;;;;;6125698;23;20017;-76
2021/09/04 01:58:36;;;;;;;13.68;8.32;;;10.80;99.90;;;;;;6126383;23;20371;-76
2021/09/04 02:01:02;;;;;;;13.88;7.47;;;10.70;99.90;;;;;;6125446;23;20009;-76
2021/09/04 02:03:28;;;;;;;14.25;7.47;;;10.70;99.90;;;;;;6126015;23;20021;-76
2021/09/04 02:05:54;;;;;;;12.02;7.30;;;10.70;99.90;;;;;;6125267;23;20010;-76
2021/09/04 02:08:19;;;;;;;11.23;6.82;;;10.60;99.90;;;;;;6098006;23;20117;-77
2021/09/04 02:10:45;;;;;;;12.48;7.30;;;10.60;99.90;;;;;;6123423;23;20346;-77
2021/09/04 02:13:11;;;;;;;12.50;7.45;;;10.50;99.90;;;;;;6122944;23;20510;-77
2021/09/04 02:15:37;;;;;;;13.05;6.70;;;10.50;99.90;;;;;;6123298;23;20010;-77
2021/09/04 02:18:02;;;;;;;15.77;7.15;;;10.50;99.90;;;;;;6123069;23;20678;-76
2021/09/04 02:20:29;;;;;;;11.90;6.78;;;10.40;99.90;;;;;;6123455;23;20013;-76
2021/09/04 02:22:55;;;;;;;11.65;6.82;;;10.40;99.90;;;;;;6123408;23;20010;-76
2021/09/04 02:25:20;;;;;;;13.93;6.78;;;10.40;99.90;;;;;;6123387;23;20026;-77
2021/09/04 02:27:46;;;;;;;13.70;7.85;;;10.40;99.90;;;;;;6124164;23;20010;-77
2021/09/04 02:30:12;;;;;;;10.70;6.43;;;10.40;99.90;;;;;;6126205;23;20002;-77
2021/09/04 02:32:38;;;;;;;9.40;5.90;;;10.30;99.90;;;;;;6125381;23;20010;-77
2021/09/04 02:35:05;;;;;;;9.70;7.05;;;10.30;99.90;;;;;;6126224;23;20058;-77
2021/09/04 02:37:31;;;;;;;11.07;6.55;;;10.20;99.90;;;;;;6124635;23;20006;-76
2021/09/04 02:39:57;;;;;;;10.25;6.15;;;10.10;99.90;;;;;;6124535;23;20002;-77
2021/09/04 02:42:22;;;;;;;11.98;6.60;;;10.20;99.90;;;;;;6125415;23;20017;-76
2021/09/04 02:44:48;;;;;;;11.27;5.60;;;10.10;99.90;;;;;;6125686;23;20056;-76
2021/09/04 02:47:14;;;;;;;10.40;6.30;;;10.10;99.90;;;;;;6125052;23;20344;-76
2021/09/04 02:49:39;;;;;;;12.65;6.70;;;10.10;99.90;;;;;;6123952;23;20084;-76
2021/09/04 02:52:05;;;;;;;13.80;7.20;;;10.00;99.90;;;;;;6124062;23;20042;-76
2021/09/04 02:54:31;;;;;;;14.60;8.02;;;10.00;99.90;;;;;;6124097;23;20503;-76
2021/09/04 02:56:57;;;;;;;9.90;7.20;;;10.00;99.90;;;;;;6123853;23;20006;-76
2021/09/04 02:59:23;;;;;;;12.68;8.02;;;9.90;99.90;;;;;;6125236;23;20012;-75
2021/09/04 03:01:48;;;;;;;12.07;7.35;;;9.90;99.90;;;;;;6125443;23;20009;-76
2021/09/04 03:04:14;;;;;;;10.85;7.05;;;9.90;99.90;;;;;;6124245;23;20017;-76
2021/09/04 03:06:40;;;;;;;12.55;6.95;;;9.90;99.90;;;;;;6124079;23;20010;-76
2021/09/04 03:09:05;;;;;;;12.07;7.22;;;9.80;99.90;;;;;;6124301;23;20013;-75
2021/09/04 03:11:31;;;;;;;12.73;7.55;;;9.80;99.90;;;;;;6125110;23;20011;-75
2021/09/04 03:13:57;;;;;;;12.18;7.13;;;9.80;99.90;;;;;;6099713;23;20456;-75
2021/09/04 03:16:22;;;;;;;12.70;6.80;;;9.70;99.90;;;;;;6124636;23;20039;-76
2021/09/04 03:18:48;;;;;;;11.48;6.90;;;9.80;99.90;;;;;;6124454;23;20018;-76
2021/09/04 03:21:14;;;;;;;12.52;6.63;;;9.70;99.90;;;;;;6125305;23;20445;-76
2021/09/04 03:23:39;;;;;;;10.00;6.72;;;9.80;99.90;;;;;;6125196;23;20002;-75
2021/09/04 03:26:05;;;;;;;14.68;7.13;;;9.70;99.90;;;;;;6125502;23;20009;-75
2021/09/04 03:28:31;;;;;;;9.98;6.43;;;9.60;99.90;;;;;;6125415;23;20029;-76
2021/09/04 03:30:57;;;;;;;11.10;6.63;;;9.60;99.90;;;;;;6125321;23;20029;-76
2021/09/04 03:33:22;;;;;;;11.27;6.72;;;9.60;99.90;;;;;;6124420;23;20434;-75
2021/09/04 03:35:48;;;;;;;17.65;6.97;;;9.60;99.90;;;;;;6123484;23;20040;-75
2021/09/04 03:38:14;;;;;;;37.38;6.60;;;9.60;99.90;;;;;;6124673;23;20040;-74
2021/09/04 03:40:40;;;;;;;9.77;5.85;;;9.50;99.90;;;;;;6124650;23;20009;-75
2021/09/04 03:43:05;;;;;;;19.67;6.38;;;9.50;99.90;;;;;;6123930;23;20068;-75
2021/09/04 03:45:31;;;;;;;33.08;8.27;;;9.50;99.90;;;;;;6124290;23;20452;-75
2021/09/04 03:47:56;;;;;;;26.33;6.75;;;9.40;99.90;;;;;;6122684;23;20013;-77
2021/09/04 03:50:22;;;;;;;14.00;6.32;;;9.30;99.90;;;;;;6121208;23;20001;-77
2021/09/04 03:52:48;;;;;;;22.90;6.43;;;9.30;99.90;;;;;;6121749;23;20452;-77
2021/09/04 03:55:14;;;;;;;16.20;6.55;;;9.30;99.90;;;;;;6122060;23;20012;-76
2021/09/04 03:57:39;;;;;;;16.02;6.22;;;9.20;99.90;;;;;;6122411;23;20002;-76
2021/09/04 04:00:06;;;;;;;11.95;5.60;;;9.20;99.90;;;;;;6122768;23;20006;-76
2021/09/04 04:02:31;;;;;;;9.95;6.28;;;9.20;99.90;;;;;;6122568;23;20010;-76
2021/09/04 04:04:57;;;;;;;13.40;6.22;;;9.20;99.90;;;;;;6125514;23;20399;-77
2021/09/04 04:07:23;;;;;;;11.20;6.53;;;9.10;99.90;;;;;;6098102;23;20006;-76
2021/09/04 04:09:48;;;;;;;13.98;5.68;;;9.10;99.90;;;;;;6126508;23;20006;-76
2021/09/04 04:12:14;;;;;;;8.15;5.80;;;9.00;99.90;;;;;;6126335;23;20017;-76
2021/09/04 04:14:40;;;;;;;11.07;5.47;;;9.10;99.90;;;;;;6126419;23;20009;-76
2021/09/04 04:17:06;;;;;;;9.52;5.88;;;9.10;99.90;;;;;;6126560;23;20006;-76
2021/09/04 04:19:31;;;;;;;12.02;5.53;;;9.10;99.90;;;;;;6126495;23;20013;-76
2021/09/04 04:21:57;;;;;;;7.03;5.03;;;9.10;99.90;;;;;;6125987;23;20029;-76
2021/09/04 04:24:23;;;;;;;8.38;5.55;;;9.00;99.90;;;;;;6125104;23;20006;-76
2021/09/04 04:26:48;;;;;;;9.65;5.45;;;9.00;99.90;;;;;;6123909;23;20013;-75
2021/09/04 04:29:14;;;;;;;9.18;5.43;;;9.10;99.90;;;;;;6125342;23;20006;-75
2021/09/04 04:31:40;;;;;;;8.88;5.75;;;9.20;99.90;;;;;;6124838;23;20014;-76
2021/09/04 04:34:06;;;;;;;9.73;5.25;;;9.20;99.90;;;;;;6126453;23;20002;-76
2021/09/04 04:36:33;;;;;;;10.05;5.30;;;9.20;99.90;;;;;;6125911;23;20006;-76
2021/09/04 04:38:59;;;;;;;8.35;4.88;;;9.30;99.90;;;;;;6125697;23;20009;-76
2021/09/04 04:41:24;;;;;;;11.32;5.45;;;9.30;99.90;;;;;;6126049;23;20333;-76
2021/09/04 04:43:50;;;;;;;10.15;5.70;;;9.40;99.90;;;;;;6126380;23;20448;-75
2021/09/04 04:46:16;;;;;;;11.85;5.15;;;9.40;99.90;;;;;;6125046;23;20073;-75
2021/09/04 04:48:42;;;;;;;9.05;5.05;;;9.50;99.90;;;;;;6126199;23;20002;-76
2021/09/04 04:51:07;;;;;;;11.02;5.80;;;9.50;99.90;;;;;;6124572;23;20015;-75
2021/09/04 04:53:33;;;;;;;11.23;5.97;;;9.60;99.90;;;;;;6125516;23;20036;-75
2021/09/04 04:56:02;;;;;;;7.70;5.13;;;9.60;99.90;;;;;;6124928;23;20032;-76
2021/09/04 04:58:30;;;;;;;8.60;5.30;;;9.80;99.90;;;;;;6125162;23;20010;-75
2021/09/04 05:00:56;;;;;;;10.25;4.80;;;9.80;99.90;;;;;;6125842;23;20433;-75
2021/09/04 05:03:22;;;;;;;7.05;4.72;;;9.90;99.90;;;;;;6099920;23;20068;-76
2021/09/04 05:05:47;;;;;;;7.38;4.28;;;9.90;99.90;;;;;;6125383;23;20009;-75
2021/09/04 05:08:13;;;;;;;9.52;4.07;;;10.00;99.90;;;;;;6125890;23;20006;-76
2021/09/04 05:10:39;;;;;;;10.07;4.80;;;10.00;99.90;;;;;;6125077;23;20010;-75
2021/09/04 05:13:05;;;;;;;7.55;3.80;;;10.10;99.90;;;;;;6124846;23;20010;-76
2021/09/04 05:15:30;;;;;;;10.25;4.30;;;10.20;99.90;;;;;;6125311;23;20081;-75
2021/09/04 05:17:56;;;;;;;6.97;3.30;;;10.30;99.90;;;;;;6125683;23;20090;-76
2021/09/04 05:20:22;;;;;;;9.85;4.60;;;10.30;99.90;;;;;;6122927;23;20006;-75
2021/09/04 05:22:48;;;;;;;7.47;3.72;;;10.40;99.90;;;;;;6125169;23;20029;-77
2021/09/04 05:25:17;;;;;;;6.78;3.30;;;10.40;99.90;;;;;;6125382;23;20006;-76
2021/09/04 05:27:43;;;;;;;8.32;2.90;;;10.50;99.90;;;;;;6125274;23;20009;-76
2021/09/04 05:30:10;;;;;;;5.13;3.00;;;10.60;99.90;;;;;;6125665;23;20010;-76
2021/09/04 05:32:35;;;;;;;6.28;2.92;;;10.70;99.90;;;;;;6125000;23;20511;-76
2021/09/04 05:35:01;;;;;;;9.90;3.63;;;10.80;99.90;;;;;;6125222;23;20033;-77
2021/09/04 05:37:28;;;;;;;6.75;2.97;;;10.80;99.90;;;;;;6124872;23;20002;-76
2021/09/04 05:39:54;;;;;;;8.07;2.92;;;10.90;99.90;;;;;;6125315;23;19998;-75
2021/09/04 05:42:20;;;;;;;10.15;3.15;;;10.90;99.90;;;;;;6124227;23;20426;-75
2021/09/04 05:44:45;;;;;;;6.60;3.45;;;11.00;99.90;;;;;;6126064;23;20005;-75
2021/09/04 05:47:11;;;;;;;4.72;2.92;;;11.00;99.90;;;;;;6124386;23;20501;-75
2021/09/04 05:49:37;;;;;;;6.53;3.20;;;11.10;99.90;;;;;;6125558;23;20002;-75
2021/09/04 05:52:03;;;;;;;7.53;3.75;;;11.20;99.90;;;;;;6125022;23;20020;-76
2021/09/04 05:54:29;;;;;;;9.52;4.97;;;11.20;99.90;;;;;;6124859;23;20006;-75
2021/09/04 05:56:54;;;;;;;4.30;2.40;;;11.30;99.90;;;;;;6125410;23;20009;-75
2021/09/04 05:59:20;;;;;;;4.63;2.30;;;11.40;99.90;;;;;;6125107;23;20010;-75
2021/09/04 06:01:46;;;;;;;5.38;2.00;;;11.60;99.90;;;;;;6125380;23;20315;-75
2021/09/04 06:04:11;;;;;;;5.03;2.45;;;11.60;99.90;;;;;;6124089;23;20018;-76
2021/09/04 06:06:37;;;;;;;5.70;1.75;;;11.70;99.90;;;;;;6124417;23;20002;-76
2021/09/04 06:09:03;;;;;;;6.22;2.60;;;11.80;99.90;;;;;;6124593;23;20032;-75
2021/09/04 06:11:29;;;;;;;2.80;1.75;;;11.90;99.90;;;;;;6124364;23;20541;-75
2021/09/04 06:13:57;;;;;;;11.02;2.33;;;12.10;99.90;;;;;;6124669;23;20333;-75
2021/09/04 06:16:22;;;;;;;4.07;2.22;;;12.30;99.90;;;;;;6124718;23;20085;-74
2021/09/04 06:18:48;;;;;;;4.95;2.60;;;12.50;99.90;;;;;;6123724;23;20040;-76
2021/09/04 06:21:14;;;;;;;3.67;1.60;;;12.70;99.90;;;;;;6125007;23;20448;-76
2021/09/04 06:23:39;;;;;;;3.88;1.67;;;12.70;99.90;;;;;;6124587;23;20405;-76
2021/09/04 06:26:05;;;;;;;3.58;1.38;;;12.70;99.90;;;;;;6125060;23;20006;-76
2021/09/04 06:28:31;;;;;;;4.43;1.17;;;12.50;99.90;;;;;;6124716;23;20081;-76
2021/09/04 06:30:56;;;;;;;2.75;1.35;;;12.40;99.90;;;;;;6124947;23;20422;-75
2021/09/04 06:33:22;;;;;;;5.32;1.83;;;12.40;99.90;;;;;;6124448;23;20014;-75
2021/09/04 06:35:48;;;;;;;6.10;2.25;;;12.50;99.90;;;;;;6122379;23;20028;-76
2021/09/04 06:38:14;;;;;;;2.47;1.10;;;12.50;99.90;;;;;;6121137;23;20045;-75
2021/09/04 06:40:40;;;;;;;8.77;1.73;;;12.50;99.90;;;;;;6124836;23;20002;-76
2021/09/04 06:43:06;;;;;;;4.32;1.58;;;12.60;99.90;;;;;;6125242;23;20010;-76
2021/09/04 06:45:32;;;;;;;2.25;1.20;;;12.60;99.90;;;;;;6124498;23;20333;-75
2021/09/04 06:47:57;;;;;;;3.13;1.20;;;12.80;99.90;;;;;;6124134;23;20402;-77
2021/09/04 06:50:23;;;;;;;4.50;1.25;;;12.80;99.90;;;;;;6124507;23;20037;-75
2021/09/04 06:52:49;;;;;;;4.40;1.60;;;12.80;99.90;;;;;;6124687;23;20018;-76
2021/09/04 06:55:14;;;;;;;5.60;1.60;;;12.90;99.90;;;;;;6123243;23;20002;-76
2021/09/04 06:57:40;;;;;;;3.60;0.90;;;12.90;99.90;;;;;;6124065;23;20034;-76
2021/09/04 07:00:07;;;;;;;4.63;0.88;;;13.00;99.90;;;;;;6123282;23;20091;-76
2021/09/04 07:02:32;;;;;;;2.17;1.10;;;13.10;99.90;;;;;;6124340;23;20338;-77
2021/09/04 07:04:58;;;;;;;3.25;1.02;;;13.20;99.90;;;;;;6124119;23;20008;-76
2021/09/04 07:07:24;;;;;;;2.58;1.10;;;13.40;99.90;;;;;;6124709;23;20088;-76
2021/09/04 07:09:49;;;;;;;3.58;1.13;;;13.40;99.90;;;;;;6124952;23;20002;-76
2021/09/04 07:12:15;;;;;;;2.30;0.95;;;13.50;99.90;;;;;;6124239;23;20397;-76
2021/09/04 07:14:41;;;;;;;2.88;1.17;;;13.60;99.90;;;;;;6124492;23;20013;-76
2021/09/04 07:17:06;;;;;;;2.97;1.33;;;13.70;99.90;;;;;;6123335;23;20464;-76
2021/09/04 07:19:32;;;;;;;2.53;0.60;;;13.70;99.90;;;;;;6124485;23;20002;-76
2021/09/04 07:21:58;;;;;;;4.07;1.05;;;13.70;99.90;;;;;;6124490;23;20006;-76
2021/09/04 07:24:23;;;;;;;3.20;0.80;;;13.70;99.90;;;;;;6124598;23;20009;-76
2021/09/04 07:26:49;;;;;;;3.25;1.23;;;13.70;99.90;;;;;;6124859;23;20504;-76
2021/09/04 07:29:15;;;;;;;5.32;0.85;;;13.70;99.90;;;;;;6124445;23;20006;-76
2021/09/04 07:31:41;;;;;;;3.60;1.20;;;13.80;99.90;;;;;;6124640;23;20016;-77
2021/09/04 07:34:07;;;;;;;3.25;0.85;;;13.70;99.90;;;;;;6124277;23;20005;-77
2021/09/04 07:36:32;;;;;;;1.95;1.00;;;13.80;99.90;;;;;;6124270;23;20359;-76
2021/09/04 07:38:58;;;;;;;7.63;1.70;;;13.70;99.90;;;;;;6124561;23;20010;-76
2021/09/04 07:41:24;;;;;;;7.85;1.10;;;13.80;99.90;;;;;;6124673;23;20010;-77
2021/09/04 07:43:50;;;;;;;2.45;1.00;;;13.90;99.90;;;;;;6125149;23;20002;-77
2021/09/04 07:46:15;;;;;;;7.72;1.02;;;13.90;99.90;;;;;;6098654;23;20070;-77
2021/09/04 07:48:41;;;;;;;4.25;0.88;;;14.00;99.90;;;;;;6124357;23;20002;-76
2021/09/04 07:51:07;;;;;;;4.35;1.45;;;14.10;99.90;;;;;;6124630;23;20008;-77
2021/09/04 07:53:32;;;;;;;2.58;0.75;;;14.20;99.90;;;;;;6124661;23;20014;-76
2021/09/04 07:55:58;;;;;;;2.97;1.10;;;14.30;99.90;;;;;;6124555;23;20016;-76
2021/09/04 07:58:23;;;;;;;4.28;1.00;;;14.40;99.90;;;;;;6124593;23;20013;-77
2021/09/04 08:00:49;;;;;;;2.13;0.65;;;14.50;99.90;;;;;;6123782;23;20010;-77
2021/09/04 08:03:15;;;;;;;4.43;1.17;;;14.50;99.90;;;;;;6124653;23;20017;-75
2021/09/04 08:05:40;;;;;;;1.42;0.70;;;14.50;99.90;;;;;;6124649;23;20426;-76
2021/09/04 08:08:06;;;;;;;2.50;1.25;;;14.50;99.90;;;;;;6098465;23;20408;-75
2021/09/04 08:10:34;;;;;;;2.50;0.63;;;14.50;99.90;;;;;;6125281;23;20109;-76
2021/09/04 08:12:59;;;;;;;1.73;0.60;;;14.60;99.90;;;;;;6124474;23;20042;-75
2021/09/04 08:15:25;;;;;;;4.90;0.65;;;14.50;99.90;;;;;;6123697;23;20002;-76
2021/09/04 08:17:51;;;;;;;4.88;0.80;;;14.60;99.90;;;;;;6124645;23;20405;-76
2021/09/04 08:20:16;;;;;;;5.15;0.70;;;14.70;99.90;;;;;;6124885;23;20009;-76
2021/09/04 08:22:42;;;;;;;3.55;0.50;;;14.80;99.90;;;;;;6124960;23;20311;-75
2021/09/04 08:25:08;;;;;;;3.60;1.02;;;14.80;99.90;;;;;;6124720;23;20006;-76
2021/09/04 08:27:34;;;;;;;4.47;0.80;;;14.80;99.90;;;;;;6124306;23;20088;-76
2021/09/04 08:29:59;;;;;;;3.67;0.50;;;14.90;99.90;;;;;;6123056;23;20085;-76
2021/09/04 08:32:25;;;;;;;2.53;0.77;;;15.00;99.90;;;;;;6123462;23;20038;-76
2021/09/04 08:34:51;;;;;;;2.47;1.00;;;15.00;99.90;;;;;;6124696;23;19998;-76
2021/09/04 08:37:17;;;;;;;8.23;0.98;;;15.00;99.90;;;;;;6124506;23;20002;-76
2021/09/04 08:39:43;;;;;;;1.08;0.50;;;15.00;99.00;;;;;;6124520;23;20001;-76
2021/09/04 08:42:09;;;;;;;1.83;0.75;;;15.00;97.60;;;;;;6125833;23;20478;-75
2021/09/04 08:44:36;;;;;;;4.35;0.75;;;15.10;99.40;;;;;;6127475;23;20013;-75
2021/09/04 08:47:02;;;;;;;4.45;0.63;;;15.10;99.20;;;;;;6125624;23;20010;-76
2021/09/04 08:49:28;;;;;;;3.47;0.60;;;15.20;99.40;;;;;;6125973;23;20456;-76
2021/09/04 08:51:54;;;;;;;1.80;0.70;;;15.20;99.50;;;;;;6126366;23;20041;-76
2021/09/04 08:54:20;;;;;;;3.85;0.40;;;15.20;98.90;;;;;;6126428;23;20005;-75
2021/09/04 08:56:46;;;;;;;3.88;1.33;;;15.20;97.20;;;;;;6126238;23;20006;-75
2021/09/04 08:59:11;;;;;;;2.60;0.50;;;15.20;97.20;;;;;;6126538;23;20009;-74
2021/09/04 09:01:44;;;;;;;0.93;0.57;;;15.30;95.30;;;;;;6126626;23;20037;-76
2021/09/04 09:04:14;;;;;;;2.28;0.50;;;15.40;95.20;;;;;;6126311;23;20423;-76
2021/09/04 09:06:43;;;;;;;1.23;0.40;;;15.40;95.10;;;;;;6126257;23;20012;-77
2021/09/04 09:09:26;;;;;;;1.65;0.40;;;15.40;94.50;;;;;;6126006;23;20013;-76
2021/09/04 09:11:57;;;;;;;5.38;0.50;;;15.50;93.40;;;;;;6123761;23;20041;-75
2021/09/04 09:14:24;;;;;;;1.90;0.55;;;15.50;94.80;;;;;;6124236;23;20006;-76
2021/09/04 09:16:54;;;;;;;2.15;0.50;;;15.50;90.90;;;;;;6125175;23;20056;-76
2021/09/04 09:19:24;;;;;;;3.05;0.70;;;15.50;90.90;;;;;;6123819;23;20061;-76
2021/09/04 09:21:50;;;;;;;2.13;0.60;;;15.50;90.90;;;;;;6124708;23;20041;-76
2021/09/04 09:24:18;;;;;;;2.28;0.68;;;15.40;91.60;;;;;;6125483;23;20002;-76
2021/09/04 09:26:59;;;;;;;2.80;0.50;;;15.50;94.30;;;;;;6124446;23;20083;-76
2021/09/04 09:29:25;;;;;;;1.92;0.70;;;15.60;93.70;;;;;;6124931;23;20002;-76
2021/09/04 09:32:02;;;;;;;6.25;2.10;;;15.70;90.80;;;;;;6125115;23;20019;-76
2021/09/04 09:34:28;;;;;;;1.65;0.50;;;15.70;92.20;;;;;;6124305;23;20002;-76
2021/09/04 09:37:01;;;;;;;2.40;0.63;;;15.70;89.30;;;;;;6124660;23;20061;-76
2021/09/04 09:39:29;;;;;;;0.60;0.40;;;15.70;88.30;;;;;;6125012;23;20085;-76
2021/09/04 09:41:56;;;;;;;2.03;0.50;;;15.80;90.50;;;;;;6124329;23;20029;-76
2021/09/04 09:44:27;;;;;;;4.28;0.63;;;15.80;84.60;;;;;;6125467;23;20073;-76
2021/09/04 09:46:57;;;;;;;1.70;0.40;;;15.80;86.80;;;;;;6097786;23;20010;-76
2021/09/04 09:49:32;;;;;;;1.75;0.40;;;15.90;84.40;;;;;;6124339;23;20052;-76
2021/09/04 09:52:04;;;;;;;1.33;0.60;;;15.90;87.40;;;;;;6124930;23;20013;-76
2021/09/04 09:54:31;;;;;;;0.65;0.35;;;15.90;87.10;;;;;;6123155;23;20521;-76
2021/09/04 09:57:03;;;;;;;2.20;0.30;;;16.00;89.60;;;;;;6125017;23;20041;-76
2021/09/04 09:59:30;;;;;;;1.30;0.32;;;16.10;90.10;;;;;;6099557;23;20140;-76
2021/09/04 10:02:02;;;;;;;0.90;0.30;;;16.20;91.00;;;;;;6126185;23;20147;-76
2021/09/04 10:04:31;;;;;;;2.55;0.40;;;16.20;88.50;;;;;;6125856;23;20076;-76
2021/09/04 10:06:57;;;;;;;1.98;0.47;;;16.10;85.40;;;;;;6125160;23;20081;-75
2021/09/04 10:09:24;;;;;;;2.40;0.73;;;16.20;89.50;;;;;;6125418;23;20005;-76
2021/09/04 10:11:51;;;;;;;2.45;0.43;;;16.20;88.60;;;;;;6125173;23;20014;-76
2021/09/04 10:14:18;;;;;;;1.92;0.50;;;16.30;87.00;;;;;;6125020;23;20441;-75
2021/09/04 10:16:45;;;;;;;2.53;0.57;;;16.40;91.30;;;;;;6125699;23;20018;-76
2021/09/04 10:19:16;;;;;;;10.95;0.80;;;16.60;92.50;;;;;;6124971;23;20009;-77
2021/09/04 10:21:41;;;;;;;;;;;16.70;92.00;;;;;;6098984;23;20008;-75
2021/09/04 10:24:08;;;;;;;1.17;0.52;;;16.70;88.10;;;;;;6124743;23;19979;-75
2021/09/04 10:26:36;;;;;;;1.25;0.30;;;16.60;86.80;;;;;;6125156;23;20333;-75
2021/09/04 10:29:07;;;;;;;1.20;0.52;;;16.50;86.00;;;;;;6099213;23;20009;-75
2021/09/04 10:31:56;;;;;;;3.17;0.85;;;16.40;85.30;;;;;;6128257;23;20329;-76
2021/09/04 10:34:37;;;;;;;2.55;0.28;;;16.40;83.10;;;;;;6125084;23;20002;-76
2021/09/04 10:37:05;;;;;;;1.45;0.57;;;16.40;84.80;;;;;;6125063;23;20006;-75
2021/09/04 10:39:55;;;;;;;1.17;0.47;;;16.40;87.10;;;;;;6125556;23;20009;-76
2021/09/04 10:42:33;;;;;;;1.38;0.45;;;16.40;82.10;;;;;;6123848;23;20006;-76
2021/09/04 10:45:06;;;;;;;1.15;0.50;;;16.30;85.60;;;;;;6124631;23;20582;-76
2021/09/04 10:47:55;;;;;;;2.00;0.40;;;16.50;86.80;;;;;;6124534;23;20012;-76
2021/09/04 10:50:31;;;;;;;3.17;0.43;;;16.50;80.30;;;;;;6124720;23;20002;-76
2021/09/04 10:53:02;;;;;;;1.40;0.43;;;16.50;84.20;;;;;;6123981;23;20060;-76
2021/09/04 10:55:37;;;;;;;1.42;0.38;;;16.50;78.90;;;;;;6124715;23;20009;-76
2021/09/04 10:58:16;;;;;;;2.55;0.50;;;16.50;80.40;;;;;;6123550;23;20002;-74
2021/09/04 11:00:48;;;;;;;3.70;0.50;;;16.50;82.80;;;;;;6124428;23;20009;-75
2021/09/04 11:03:18;;;;;;;1.13;0.60;;;16.60;80.70;;;;;;6124863;23;20048;-75
2021/09/04 11:05:53;;;;;;;1.67;0.63;;;16.60;80.50;;;;;;6123978;23;20010;-75
2021/09/04 11:08:27;;;;;;;1.90;0.50;;;16.60;79.60;;;;;;6124005;23;20013;-76
2021/09/04 11:11:18;;;;;;;1.80;0.40;;;16.60;81.00;;;;;;6125051;23;20066;-75
2021/09/04 11:13:48;;;;;;;1.63;0.50;;;16.70;79.30;;;;;;6124390;23;20447;-75
2021/09/04 11:16:26;;;;;;;1.98;0.40;;;16.70;81.00;;;;;;6124540;23;20016;-75
2021/09/04 11:18:52;;;;;;;1.23;0.32;;;16.50;81.10;;;;;;6123362;23;20006;-75
2021/09/04 11:21:18;;;;;;;2.05;0.50;;;16.50;81.20;;;;;;6124063;23;20025;-75
2021/09/04 11:23:44;;;;;;;2.67;0.73;;;16.70;85.40;;;;;;6124111;23;20430;-75
2021/09/04 11:26:10;;;;;;;3.65;0.43;;;16.70;81.80;;;;;;6123954;23;20029;-75
2021/09/04 11:28:36;;;;;;;2.75;0.60;;;16.90;82.40;;;;;;6124424;23;20440;-75
2021/09/04 11:31:03;;;;;;;2.58;0.30;;;17.00;79.10;;;;;;6124920;23;20080;-75
2021/09/04 11:33:30;;;;;;;1.33;0.40;;;17.10;80.90;;;;;;6124964;23;20017;-73
2021/09/04 11:35:56;;;;;;;2.03;0.52;;;17.10;79.20;;;;;;6125177;23;20009;-75
2021/09/04 11:38:22;;;;;;;1.75;0.57;;;17.10;78.50;;;;;;6125360;23;20337;-74
2021/09/04 11:40:48;;;;;;;0.60;0.40;;;17.10;81.60;;;;;;6123956;23;20006;-74
2021/09/04 11:43:16;;;;;;;1.95;0.30;;;17.00;76.90;;;;;;6122717;23;20068;-75
2021/09/04 11:45:43;;;;;;;1.73;0.57;;;16.90;81.50;;;;;;6121965;23;20010;-73
2021/09/04 11:48:13;;;;;;;1.63;0.40;;;16.90;82.20;;;;;;6122119;23;20002;-75
2021/09/04 11:50:39;;;;;;;;;;;17.00;82.40;;;;;;6124397;23;20016;-73
2021/09/04 11:53:12;;;;;;;2.75;0.60;;;17.10;80.70;;;;;;6123306;23;19963;-75
2021/09/04 11:55:38;;;;;;;2.30;0.68;;;16.90;74.20;;;;;;6122503;23;20006;-74
2021/09/04 11:58:14;;;;;;;1.23;0.65;;;16.90;79.20;;;;;;6122989;23;20063;-75
2021/09/04 12:00:41;;;;;;;2.08;0.40;;;17.00;80.40;;;;;;6124134;23;20381;-74
2021/09/04 12:03:12;;;;;;;1.65;0.57;;;17.10;82.10;;;;;;6124652;23;20440;-74
2021/09/04 12:05:43;;;;;;;2.90;0.65;;;17.20;75.90;;;;;;6124628;23;20006;-75
2021/09/04 12:08:12;;;;;;;5.00;0.70;;;17.30;78.90;;;;;;6124860;23;20511;-75
2021/09/04 12:10:40;;;;;;;3.13;0.55;;;17.30;76.50;;;;;;6125284;23;20014;-75
2021/09/04 12:13:09;;;;;;;1.60;0.60;;;17.30;77.90;;;;;;6124157;23;20014;-74
2021/09/04 12:15:36;;;;;;;3.03;0.60;;;17.30;76.30;;;;;;6124280;23;20089;-74
2021/09/04 12:18:06;;;;;;;1.60;0.43;;;17.20;79.40;;;;;;6126596;23;20037;-74
2021/09/04 12:20:33;;;;;;;0.95;0.40;;;17.10;78.40;;;;;;6126583;23;20001;-74
2021/09/04 12:23:20;;;;;;;2.25;0.57;;;17.00;77.60;;;;;;6125919;23;20006;-74
2021/09/04 12:25:47;;;;;;;1.88;0.50;;;17.10;80.20;;;;;;6100238;23;20006;-74
2021/09/04 12:28:21;;;;;;;3.38;0.77;;;17.20;81.00;;;;;;6125787;23;20038;-74
2021/09/04 12:31:02;;;;;;;2.85;1.05;;;17.30;75.80;;;;;;6126384;23;20026;-74
2021/09/04 12:33:33;;;;;;;2.65;0.60;;;17.30;77.10;;;;;;6126598;23;20041;-74
2021/09/04 12:36:04;;;;;;;2.92;0.52;;;17.30;76.00;;;;;;6126943;23;20006;-74
2021/09/04 12:38:41;;;;;;;1.58;0.47;;;17.30;76.90;;;;;;6126487;23;20074;-74
2021/09/04 12:41:13;;;;;;;1.55;0.40;;;17.30;75.30;;;;;;6125758;23;20025;-74
2021/09/04 12:43:51;;;;;;;2.50;0.63;;;17.30;74.90;;;;;;6100774;23;20477;-74
2021/09/04 12:46:27;;;;;;;1.58;0.57;;;17.30;74.50;;;;;;6100568;23;20061;-74